Latest Coastal Weather Observations for Cape Ferguson

IDQ60701

Issued at 4:52 pm EST Thursday 24 August 2017 (issued every 10 minutes, with the page automatically refreshed every 10 minutes)

About coastal observations | Map of coastal stations | Coastal observations for QLD | Marine services | Other Formats
Station Details ID: 032182 Name: CAPE FERGUSON NTC AWS Lat: -19.28 Lon: 147.06 Height: 0.0 m
Data from the previous 72 hours. | See also: Recent months for locations in Queensland
Date/Time
EST
Temp
°C
Wind Pressure Rain since
9am
mm
Weather Cloud Vis
km
Sea
Height
m
Swell
Dir  Spd
kts
Gust
kts
hPa Trend Height
m
Period
s
Dir
24/04:30pm 23.4 NE 5 10 1013.7 - - - - - - - - -
24/04:00pm 23.4 ENE 5 10 1013.5 - - - - - - - - -
24/03:30pm 23.5 NE 6 12 1013.5 - - - - - - - - -
24/03:00pm 23.6 NE 6 12 1013.7 - - - - - - - - -
24/02:30pm 23.4 NE 6 12 1013.9 - - - - - - - - -
24/02:00pm 23.5 ENE 7 13 1014.3 - - - - - - - - -
24/01:30pm 23.3 ENE 9 11 1014.8 - - - - - - - - -
24/01:00pm 22.9 ENE 9 11 1015.3 - - - - - - - - -
24/12:30pm 22.9 ENE 9 11 1015.9 - - - - - - - - -
24/12:00pm 22.7 ENE 9 11 1016.3 - - - - - - - - -
24/11:30am 22.8 ENE 8 10 1016.7 - - - - - - - - -
24/11:00am 22.8 E 8 9 1017.2 - - - - - - - - -
24/10:30am 22.5 E 7 10 1017.5 - - - - - - - - -
24/10:00am 22.6 E 5 7 1017.8 - - - - - - - - -
24/09:30am 22.4 ESE 6 7 1017.8 - - - - - - - - -
24/09:00am 22.3 SSE 3 5 1017.9 - - - - - - - - -
24/08:30am 22.1 SSE 3 4 1017.8 - - - - - - - - -
24/08:00am 21.9 CALM 0 1 1017.4 - - - - - - - - -
24/07:30am 20.6 WNW 2 2 1017.5 - - - - - - - - -
24/07:00am 20.6 WNW 2 3 1017.5 - - - - - - - - -
24/06:30am 20.1 NW 2 3 1017.1 - - - - - - - - -
24/06:00am 20.1 NW 3 3 1016.7 - - - - - - - - -
24/05:30am 19.8 NW 2 2 1016.7 - - - - - - - - -
24/05:00am 19.4 WNW 2 3 1016.5 - - - - - - - - -
24/04:30am 20.4 NW 2 3 1016.4 - - - - - - - - -
24/04:00am 20.3 WNW 1 3 1016.5 - - - - - - - - -
24/03:30am 20.2 NW 2 4 1016.5 - - - - - - - - -
24/03:00am 20.2 WNW 3 5 1016.5 - - - - - - - - -
24/02:30am 20.2 NNW 2 4 1016.6 - - - - - - - - -
24/02:00am 20.2 WNW 3 4 1016.9 - - - - - - - - -
24/01:30am 21.1 WNW 2 4 1017.3 - - - - - - - - -
24/01:00am 20.6 NW 3 4 1017.6 - - - - - - - - -
24/12:30am 20.5 WNW 3 6 1018.0 - - - - - - - - -
24/12:00am 20.3 WNW 5 7 1018.0 - - - - - - - - -
 
Date/Time
EST
Temp
°C
Wind Pressure Rain since
9am
mm
Weather Cloud Vis
km
Sea
Height
m
Swell
Dir  Spd
kts
Gust
kts
hPa Trend Height
m
Period
s
Dir
23/11:30pm 22.7 ENE 4 7 1018.0 - - - - - - - - -
23/11:00pm 22.3 NE 1 4 1018.0 - - - - - - - - -
23/10:30pm 22.1 N 3 4 1018.0 - - - - - - - - -
23/10:00pm 21.9 N 2 3 1018.1 - - - - - - - - -
23/09:30pm 20.9 W 2 5 1018.1 - - - - - - - - -
23/09:00pm 21.0 NW 2 4 1018.1 - - - - - - - - -
23/08:30pm 22.0 NNW 2 3 1018.0 - - - - - - - - -
23/08:00pm 21.7 WNW 2 4 1017.9 - - - - - - - - -
23/07:30pm 22.9 ENE 2 5 1017.5 - - - - - - - - -
23/07:00pm 23.1 ENE 7 9 1017.4 - - - - - - - - -
23/06:30pm 23.2 ENE 7 8 1017.4 - - - - - - - - -
23/06:00pm 23.3 ENE 8 10 1017.1 - - - - - - - - -
23/05:30pm 23.3 ENE 8 10 1017.0 - - - - - - - - -
23/05:00pm 23.3 ENE 7 10 1016.8 - - - - - - - - -
23/04:30pm 23.4 ENE 8 11 1016.7 - - - - - - - - -
23/04:00pm 23.4 ENE 8 10 1016.7 - - - - - - - - -
23/03:30pm 23.5 ENE 8 11 1016.5 - - - - - - - - -
23/03:00pm 23.6 ENE 7 9 1016.5 - - - - - - - - -
23/02:30pm 23.4 ENE 6 8 1016.8 - - - - - - - - -
23/02:00pm 23.4 ENE 6 8 1017.3 - - - - - - - - -
23/01:30pm 23.4 ENE 6 8 1017.6 - - - - - - - - -
23/01:00pm 23.6 ENE 7 10 1017.9 - - - - - - - - -
23/12:30pm 23.5 ENE 7 9 1018.4 - - - - - - - - -
23/12:00pm 23.6 ENE 6 8 1018.7 - - - - - - - - -
23/11:30am 23.5 ENE 8 10 1019.2 - - - - - - - - -
23/11:00am 23.4 ENE 7 8 1019.6 - - - - - - - - -
23/10:30am 23.5 ENE 6 8 1019.8 - - - - - - - - -
23/10:00am 23.5 ENE 8 9 1020.0 - - - - - - - - -
23/09:30am 23.5 ENE 9 10 1019.9 - - - - - - - - -
23/09:00am 23.5 ENE 8 9 1019.6 - - - - - - - - -
23/08:30am 23.4 ENE 9 11 1019.3 - - - - - - - - -
23/08:00am 23.4 ENE 9 12 1019.0 - - - - - - - - -
23/07:30am 23.3 ENE 10 11 1018.7 - - - - - - - - -
23/07:00am 23.3 ENE 7 10 1018.4 - - - - - - - - -
23/06:30am 22.7 NE 2 7 1018.1 - - - - - - - - -
23/06:00am 23.1 ENE 7 11 1018.0 - - - - - - - - -
23/05:30am 23.2 ENE 7 12 1017.8 - - - - - - - - -
23/05:00am 23.2 ENE 7 12 1017.7 - - - - - - - - -
23/04:30am 23.3 ENE 6 14 1017.7 - - - - - - - - -
23/04:00am 23.3 ENE 6 12 1017.7 - - - - - - - - -
23/03:30am 23.3 ENE 6 12 1017.7 - - - - - - - - -
23/03:00am 23.3 ENE 5 10 1017.6 - - - - - - - - -
23/02:30am 23.3 ENE 5 10 1017.7 - - - - - - - - -
23/02:00am 23.3 E 5 10 1018.0 - - - - - - - - -
23/01:30am 23.0 E 1 3 1018.0 - - - - - - - - -
23/01:00am 23.3 E 3 7 1018.3 - - - - - - - - -
23/12:30am 23.2 SSE 2 7 1018.5 - - - - - - - - -
23/12:00am 23.1 E 2 6 1018.7 - - - - - - - - -
 
Date/Time
EST
Temp
°C
Wind Pressure Rain since
9am
mm
Weather Cloud Vis
km
Sea
Height
m
Swell
Dir  Spd
kts
Gust
kts
hPa Trend Height
m
Period
s
Dir
22/11:30pm 23.3 ENE 4 8 1018.9 - - - - - - - - -
22/11:00pm 23.3 ENE 5 10 1019.1 - - - - - - - - -
22/10:30pm 23.3 ENE 4 8 1019.1 - - - - - - - - -
22/10:00pm 23.3 ENE 6 11 1019.0 - - - - - - - - -
22/09:30pm 23.1 ENE 4 9 1018.9 - - - - - - - - -
22/09:00pm 23.1 ENE 7 11 1018.7 - - - - - - - - -
22/08:30pm 23.0 ENE 9 13 1018.4 - - - - - - - - -
22/08:00pm 22.8 ENE 8 14 1018.0 - - - - - - - - -
22/07:30pm 22.8 ENE 7 11 1017.8 - - - - - - - - -
22/07:00pm 22.7 ENE 7 10 1017.4 - - - - - - - - -
22/06:30pm 22.8 ENE 7 11 1017.2 - - - - - - - - -
22/06:00pm 22.6 ENE 7 11 1016.9 - - - - - - - - -
22/05:30pm 22.7 ENE 6 12 1016.5 - - - - - - - - -
22/05:00pm 22.9 ENE 5 12 1016.3 - - - - - - - - -
22/04:30pm 22.9 ENE 6 11 1016.1 - - - - - - - - -
22/04:00pm 23.2 NE 5 10 1016.0 - - - - - - - - -
22/03:30pm 23.1 ENE 6 14 1015.8 - - - - - - - - -
22/03:00pm 23.1 NE 5 9 1015.8 - - - - - - - - -
22/02:30pm 23.0 ENE 6 12 1015.8 - - - - - - - - -
22/02:00pm 23.1 ENE 6 11 1016.1 - - - - - - - - -
22/01:30pm 22.8 ENE 6 11 1016.4 - - - - - - - - -
22/01:00pm 22.7 ENE 6 9 1016.7 - - - - - - - - -
22/12:30pm 22.5 ENE 6 9 1017.2 - - - - - - - - -
22/12:00pm 22.1 ENE 6 7 1017.8 - - - - - - - - -
22/11:30am 22.0 ENE 6 7 1018.2 - - - - - - - - -
22/11:00am 22.0 E 5 6 1018.5 - - - - - - - - -
22/10:30am 21.8 ESE 6 7 1018.9 - - - - - - - - -
22/10:00am 21.5 SE 3 4 1019.0 - - - - - - - - -
22/09:30am 20.9 SE 3 4 1019.0 - - - - - - - - -
22/09:00am 20.6 SSE 4 5 1019.0 - - - - - - - - -
22/08:30am 20.5 S 4 6 1018.7 - - - - - - - - -
22/08:00am 20.3 SW 7 8 1018.5 - - - - - - - - -
22/07:30am 19.7 W 3 5 1018.3 - - - - - - - - -
22/07:00am 19.3 W 5 9 1017.9 - - - - - - - - -
22/06:30am 19.6 W 2 5 1017.6 - - - - - - - - -
22/06:00am 18.4 WNW 2 4 1017.3 - - - - - - - - -
22/05:30am 18.4 WNW 3 4 1017.1 - - - - - - - - -
22/05:00am 18.3 W 1 2 1017.0 - - - - - - - - -
22/04:30am 17.8 W 3 3 1017.0 - - - - - - - - -
22/04:00am 18.7 WNW 2 3 1016.9 - - - - - - - - -
22/03:30am 18.1 WNW 2 3 1017.1 - - - - - - - - -
22/03:00am 18.1 WNW 2 3 1017.3 - - - - - - - - -
22/02:30am 18.8 WNW 3 4 1017.4 - - - - - - - - -
22/02:00am 19.2 NW 2 3 1017.7 - - - - - - - - -
22/01:30am 19.5 NW 2 3 1018.1 - - - - - - - - -
22/01:00am 18.9 WNW 3 4 1018.4 - - - - - - - - -
22/12:30am 19.7 WNW 2 3 1018.6 - - - - - - - - -
22/12:00am 20.1 NW 2 3 1018.7 - - - - - - - - -
 
Date/Time
EST
Temp
°C
Wind Pressure Rain since
9am
mm
Weather Cloud Vis
km
Sea
Height
m
Swell
Dir  Spd
kts
Gust
kts
hPa Trend Height
m
Period
s
Dir
21/11:30pm 20.9 NW 3 5 1018.7 - - - - - - - - -
21/11:00pm 20.2 NW 3 4 1018.9 - - - - - - - - -
21/10:30pm 20.9 NW 2 4 1018.9 - - - - - - - - -
21/10:00pm 20.8 NW 2 3 1018.9 - - - - - - - - -
21/09:30pm 21.1 NNW 3 4 1018.8 - - - - - - - - -
21/09:00pm 20.5 NW 3 4 1018.7 - - - - - - - - -
21/08:30pm 21.2 NNW 4 5 1018.6 - - - - - - - - -
21/08:00pm 21.1 NNW 2 4 1018.5 - - - - - - - - -
21/07:30pm 21.2 N 2 4 1018.1 - - - - - - - - -
21/07:00pm 21.0 NNE 2 4 1017.7 - - - - - - - - -
21/06:30pm 21.4 NNE 2 4 1017.4 - - - - - - - - -
21/06:00pm 21.5 NNE 2 5 1017.0 - - - - - - - - -
21/05:30pm 21.7 ENE 4 6 1016.8 - - - - - - - - -
21/05:00pm 21.8 ENE 4 6 1016.6 - - - - - - - - -

Other Formats:

Comma delimited format used in spreadsheet applications
http://www.bom.gov.au/fwo/IDQ60701/IDQ60701.94297.axf

JavaScript Object Notation format (JSON) in row-major order
http://www.bom.gov.au/fwo/IDQ60701/IDQ60701.94297.json